If you wish to contribute or participate in the discussions about articles you are invited to join SKYbrary as a registered user

 Actions

Annette Island Airport

From SKYbrary Wiki

PANT
Airport
ICAO: PANT – IATA: ANN
Summary
Name Annette Island Airport
Region North America
Territory Alaska US.gif
Location Annette Island, Alaska
Serving Annette Island
Elevation 36.271 m
119 ft
119 ft36.271 m
Type medium airport
Coordinates 55° 2' 32.77" N, 131° 34' 20.04" W
Runways
Designator Length Width Surface ROPS
2/20 1740 m5,708.661 ft
46 m150.919 ft
GVL /
12/30 2284 m7,493.438 ft
46 m150.919 ft
ASP /


METAR
Observation PANT 181053Z AUTO 13020G40KT 8SM -RA BKN016 OVC023 08/06 A2888 RMK PK WND 13040/1050 SLP780 P0004 T00780061 TSNO VIA AUTODIAL
Station Annette, Annette Island Airport
Date/Time 18 December 2018 10:53:00
Wind direction 130°
Wind speed 20 kts
Lowest cloud amount broken clouds
Temperature 7.8°C
Dew point 6.1°C
Humidity 88%
QNH hPa
Weather condition light rain

Maps

Terrain

Loading map...

Airport Layout

Loading map...


Accidents & Serious Incidents at or in vicinity of PANT

None on SKYbrary